createdAt,value
2023-01-22T00:02:28.101Z,100624.86
2023-01-22T00:05:01.659Z,100626.36
2023-01-22T00:07:35.056Z,100612.05
2023-01-22T00:10:10.420Z,100624.56
2023-01-22T00:12:44.360Z,100614.23
2023-01-22T00:15:19.223Z,100631.84
2023-01-22T00:17:53.821Z,100615.62
2023-01-22T00:20:27.349Z,100630.92
2023-01-22T00:23:00.953Z,100615.36
2023-01-22T00:25:34.553Z,100613.56
2023-01-22T00:28:08.190Z,100619.91
2023-01-22T00:30:41.852Z,100620.70
2023-01-22T00:33:15.195Z,100616.97
2023-01-22T00:35:48.704Z,100616.68
2023-01-22T00:38:22.296Z,100613.13
2023-01-22T00:40:55.571Z,100612.20
2023-01-22T00:43:29.021Z,100605.05
2023-01-22T00:46:03.112Z,100609.89
2023-01-22T00:48:37.005Z,100591.23
2023-01-22T00:51:12.641Z,100612.30
2023-01-22T00:53:46.489Z,100605.54
2023-01-22T00:56:20.157Z,100604.50
2023-01-22T00:58:53.668Z,100606.30
2023-01-22T01:01:27.237Z,100599.27
2023-01-22T01:04:00.686Z,100614.69
2023-01-22T01:06:34.145Z,100612.93
2023-01-22T01:09:07.680Z,100612.02
2023-01-22T01:11:41.554Z,100613.68
2023-01-22T01:14:14.914Z,100616.98
2023-01-22T01:16:49.816Z,100616.98
2023-01-22T01:19:23.532Z,100610.22
2023-01-22T01:21:57.010Z,100621.33
2023-01-22T01:24:30.671Z,100621.33
2023-01-22T01:27:04.187Z,100619.53
2023-01-22T01:29:37.225Z,100632.41
2023-01-22T01:32:10.751Z,100629.86
2023-01-22T01:34:45.728Z,100625.51
2023-01-22T01:37:19.231Z,100627.18
2023-01-22T01:39:53.348Z,100623.58
2023-01-22T01:42:29.632Z,100624.20
2023-01-22T01:45:21.778Z,100619.11
2023-01-22T01:47:58.906Z,100625.87
2023-01-22T01:50:32.759Z,100622.31
2023-01-22T01:53:07.479Z,100623.06
2023-01-22T01:55:42.988Z,100620.77
2023-01-22T01:58:20.547Z,100624.07
2023-01-22T02:00:57.551Z,100632.63
2023-01-22T02:03:32.072Z,100633.52
2023-01-22T02:06:06.280Z,100633.52
2023-01-22T02:08:39.838Z,100632.77
2023-01-22T02:11:13.439Z,100632.77
2023-01-22T02:13:51.484Z,100624.98
2023-01-22T02:16:26.071Z,100628.28
2023-01-22T02:19:00.965Z,100620.52
2023-01-22T02:21:38.498Z,100618.97
2023-01-22T02:24:14.303Z,100622.31
2023-01-22T02:26:48.235Z,100624.07
2023-01-22T02:29:23.228Z,100620.16
2023-01-22T02:31:56.701Z,100627.80
2023-01-22T02:34:30.397Z,100621.03
2023-01-22T02:37:05.424Z,100625.38
2023-01-22T02:39:38.698Z,100627.93
2023-01-22T02:42:13.178Z,100626.42
2023-01-22T02:44:47.255Z,100636.13
2023-01-22T02:47:20.994Z,100634.63
2023-01-22T02:49:54.462Z,100634.89
2023-01-22T02:52:27.982Z,100635.94
2023-01-22T02:55:01.349Z,100638.62
2023-01-22T02:57:34.756Z,100635.44
2023-01-22T03:00:11.177Z,100638.13
2023-01-22T03:02:44.234Z,100638.55
2023-01-22T03:05:18.854Z,100636.39
2023-01-22T03:07:53.246Z,100645.83
2023-01-22T03:10:26.482Z,100646.09
2023-01-22T03:13:17.203Z,100642.03
2023-01-22T03:16:08.473Z,100644.72
2023-01-22T03:18:59.720Z,100655.17
2023-01-22T03:21:33.358Z,100651.88
2023-01-22T03:24:08.524Z,100645.52
2023-01-22T03:26:43.574Z,100648.62
2023-01-22T03:29:17.156Z,100650.55
2023-01-22T03:31:52.199Z,100649.66
2023-01-22T03:34:27.063Z,100646.87
2023-01-22T03:37:01.219Z,100657.08
2023-01-22T03:39:36.073Z,100655.28
2023-01-22T03:42:09.723Z,100659.50
2023-01-22T03:44:44.242Z,100652.59
2023-01-22T03:47:19.606Z,100657.95
2023-01-22T03:49:53.042Z,100658.88
2023-01-22T03:52:26.634Z,100662.44
2023-01-22T03:55:00.160Z,100661.81
2023-01-22T03:57:33.986Z,100668.45
2023-01-22T04:00:10.122Z,100666.03
2023-01-22T04:02:49.418Z,100663.48
2023-01-22T04:05:24.359Z,100667.08
2023-01-22T04:07:58.893Z,100667.83
2023-01-22T04:10:33.919Z,100670.77
2023-01-22T04:13:08.613Z,100668.63
2023-01-22T04:15:46.092Z,100678.08
2023-01-22T04:18:24.082Z,100677.58
2023-01-22T04:21:05.980Z,100676.20
2023-01-22T04:23:44.033Z,100677.70
2023-01-22T04:26:17.611Z,100670.97
2023-01-22T04:28:51.530Z,100676.33
2023-01-22T04:31:26.755Z,100675.28
2023-01-22T04:34:04.731Z,100685.78
2023-01-22T04:36:39.749Z,100681.69
2023-01-22T04:39:12.929Z,100685.28
2023-01-22T04:41:46.235Z,100684.78
2023-01-22T04:44:19.757Z,100684.78
2023-01-22T04:46:52.938Z,100680.97
2023-01-22T04:49:26.710Z,100687.58
2023-01-22T04:52:00.328Z,100685.19
2023-01-22T04:54:35.001Z,100677.78
2023-01-22T04:57:08.545Z,100685.44
2023-01-22T04:59:42.059Z,100687.48
2023-01-22T05:02:15.722Z,100686.61
2023-01-22T05:04:49.789Z,100690.96
2023-01-22T05:07:23.419Z,100695.56
2023-01-22T05:09:57.033Z,100688.53
2023-01-22T05:12:30.336Z,100691.21
2023-01-22T05:15:07.257Z,100700.55
2023-01-22T05:17:39.375Z,100701.80
2023-01-22T05:20:14.245Z,100704.52
2023-01-22T05:22:49.777Z,100695.19
2023-01-22T05:25:24.819Z,100700.92
2023-01-22T05:27:58.343Z,100707.07
2023-01-22T05:30:34.557Z,100711.92
2023-01-22T05:33:11.398Z,100723.31
2023-01-22T05:35:45.368Z,100717.32
2023-01-22T05:38:19.578Z,100717.54
2023-01-22T05:40:53.243Z,100724.31
2023-01-22T05:43:27.350Z,100727.12
2023-01-22T05:46:03.807Z,100742.58
2023-01-22T05:48:54.997Z,100729.30
2023-01-22T05:51:32.244Z,100740.15
2023-01-22T05:54:05.498Z,100741.95
2023-01-22T05:56:40.737Z,100734.70
2023-01-22T05:59:15.254Z,100742.89
2023-01-22T06:01:50.100Z,100743.66
2023-01-22T06:04:24.541Z,100746.97
2023-01-22T06:06:57.972Z,100760.15
2023-01-22T06:09:33.109Z,100770.62
2023-01-22T06:12:07.601Z,100763.61
2023-01-22T06:14:41.164Z,100764.15
2023-01-22T06:17:14.606Z,100762.60
2023-01-22T06:19:49.525Z,100775.25
2023-01-22T06:22:23.836Z,100776.14
2023-01-22T06:24:58.942Z,100779.73
2023-01-22T06:27:34.097Z,100790.59
2023-01-22T06:30:11.094Z,100787.27
2023-01-22T06:32:44.279Z,100795.60
2023-01-22T06:35:19.465Z,100795.47
2023-01-22T06:37:53.410Z,100814.53
2023-01-22T06:40:28.683Z,100810.45
2023-01-22T06:43:04.747Z,100811.75
2023-01-22T06:45:39.762Z,100822.09
2023-01-22T06:48:14.201Z,100824.15
2023-01-22T06:50:47.524Z,100818.68
2023-01-22T06:53:20.988Z,100824.29
2023-01-22T06:55:55.925Z,100819.70
2023-01-22T06:58:29.911Z,100831.73
2023-01-22T07:01:04.553Z,100839.66
2023-01-22T07:03:37.942Z,100844.89
2023-01-22T07:06:13.042Z,100833.02
2023-01-22T07:08:47.884Z,100845.81
2023-01-22T07:11:21.314Z,100852.97
2023-01-22T07:13:54.840Z,100852.97
2023-01-22T07:16:28.576Z,100851.69
2023-01-22T07:19:02.936Z,100856.80
2023-01-22T07:21:36.474Z,100859.61
2023-01-22T07:24:11.133Z,100872.39
2023-01-22T07:26:46.451Z,100865.00
2023-01-22T07:29:19.687Z,100879.84
2023-01-22T07:31:53.323Z,100875.48
2023-01-22T07:34:26.903Z,100873.05
2023-01-22T07:37:02.124Z,100878.69
2023-01-22T07:39:35.736Z,100871.78
2023-01-22T07:42:09.356Z,100886.91
2023-01-22T07:44:42.989Z,100888.06
2023-01-22T07:47:18.081Z,100894.19
2023-01-22T07:49:51.283Z,100898.03
2023-01-22T07:52:24.516Z,100895.72
2023-01-22T07:54:57.965Z,100901.64
2023-01-22T07:57:31.700Z,100901.87
2023-01-22T08:00:05.629Z,100913.00
2023-01-22T08:02:42.268Z,100906.59
2023-01-22T08:05:16.515Z,100914.56
2023-01-22T08:07:50.532Z,100915.84
2023-01-22T08:10:23.945Z,100927.48
2023-01-22T08:12:57.326Z,100919.03
2023-01-22T08:15:31.624Z,100918.39
2023-01-22T08:18:05.322Z,100921.96
2023-01-22T08:20:39.048Z,100921.31
2023-01-22T08:23:13.726Z,100917.34
2023-01-22T08:25:47.305Z,100926.95
2023-01-22T08:28:20.646Z,100937.44
2023-01-22T08:30:55.794Z,100925.67
2023-01-22T08:33:30.101Z,100930.39
2023-01-22T08:36:03.923Z,100936.91
2023-01-22T08:38:37.528Z,100939.98
2023-01-22T08:41:11.131Z,100943.83
2023-01-22T08:43:44.663Z,100951.80
2023-01-22T08:46:18.425Z,100956.66
2023-01-22T08:48:52.111Z,100958.45
2023-01-22T08:51:26.805Z,100948.33
2023-01-22T08:54:00.347Z,100958.46
2023-01-22T08:56:33.958Z,100958.58
2023-01-22T08:59:07.154Z,100962.19
2023-01-22T09:01:40.484Z,100963.70
2023-01-22T09:04:13.906Z,100972.03
2023-01-22T09:06:47.750Z,100972.43
2023-01-22T09:09:21.152Z,100972.03
2023-01-22T09:11:54.533Z,100976.14
2023-01-22T09:14:28.225Z,100971.91
2023-01-22T09:17:01.740Z,100975.34
2023-01-22T09:19:35.307Z,100970.62
2023-01-22T09:22:08.888Z,100978.06
2023-01-22T09:24:42.245Z,100977.66
2023-01-22T09:27:15.422Z,100978.05
2023-01-22T09:29:48.986Z,100983.28
2023-01-22T09:32:22.045Z,100982.87
2023-01-22T09:34:55.187Z,100978.63
2023-01-22T09:37:28.895Z,100983.91
2023-01-22T09:40:01.952Z,100980.55
2023-01-22T09:42:38.334Z,100991.19
2023-01-22T09:45:15.723Z,100989.89
2023-01-22T09:47:52.155Z,100992.97
2023-01-22T09:50:27.571Z,100989.48
2023-01-22T09:53:03.209Z,100999.51
2023-01-22T09:55:39.517Z,101003.60
2023-01-22T09:58:16.046Z,101000.39
2023-01-22T10:00:53.812Z,101007.97
2023-01-22T10:03:27.267Z,100997.06
2023-01-22T10:06:02.370Z,101001.40
2023-01-22T10:08:38.042Z,101001.12
2023-01-22T10:11:12.052Z,100995.77
2023-01-22T10:13:45.441Z,100995.77
2023-01-22T10:16:18.553Z,100994.47
2023-01-22T10:18:56.872Z,100989.45
2023-01-22T10:21:32.222Z,100990.07
2023-01-22T10:24:06.030Z,100985.97
2023-01-22T10:26:41.990Z,100985.67
2023-01-22T10:29:18.408Z,100980.80
2023-01-22T10:31:54.027Z,100992.60
2023-01-22T10:34:31.195Z,100981.34
2023-01-22T10:37:07.062Z,100987.59
2023-01-22T10:39:44.304Z,100996.55
2023-01-22T10:42:20.759Z,100993.98
2023-01-22T10:44:57.901Z,101000.91
2023-01-22T10:47:31.105Z,100995.36
2023-01-22T10:50:06.825Z,100988.45
2023-01-22T10:55:26.386Z,100992.69
2023-01-22T10:58:03.009Z,101000.10
2023-01-22T11:00:50.528Z,101001.14
2023-01-22T11:03:22.359Z,101001.14
2023-01-22T11:05:58.953Z,100999.61
2023-01-22T11:08:36.207Z,100995.63
2023-01-22T11:11:12.218Z,100993.40
2023-01-22T11:13:56.693Z,101001.48
2023-01-22T11:16:33.105Z,100997.06
2023-01-22T11:19:10.524Z,100996.78
2023-01-22T11:21:46.593Z,100989.53
2023-01-22T11:24:22.195Z,100997.48
2023-01-22T11:27:08.023Z,100997.17
2023-01-22T11:30:00.036Z,100997.48
2023-01-22T11:32:48.635Z,101001.42
2023-01-22T11:35:28.991Z,100998.91
2023-01-22T11:38:13.551Z,101003.81
2023-01-22T11:40:56.214Z,100999.45
2023-01-22T11:43:36.558Z,100998.80
2023-01-22T11:46:27.269Z,100994.27
2023-01-22T11:49:11.971Z,101007.87
2023-01-22T11:51:49.437Z,100999.63
2023-01-22T11:54:30.309Z,101000.39
2023-01-22T11:57:11.568Z,101001.48
2023-01-22T11:59:51.715Z,101008.41
2023-01-22T12:02:33.390Z,101005.30
2023-01-22T12:05:20.999Z,101012.12
2023-01-22T12:07:59.611Z,101012.52
2023-01-22T12:11:12.526Z,101015.34
2023-01-22T12:14:10.796Z,101019.45
2023-01-22T12:16:48.674Z,101016.00
2023-01-22T12:19:57.611Z,101019.14
2023-01-22T12:22:35.725Z,101019.14
2023-01-22T12:25:17.878Z,101015.08
2023-01-22T12:27:55.043Z,101018.19
2023-01-22T12:30:31.122Z,101020.75
2023-01-22T12:33:05.598Z,101020.98
2023-01-22T12:35:38.994Z,101009.83
2023-01-22T12:38:17.182Z,101021.78
2023-01-22T12:41:07.517Z,101019.06
2023-01-22T12:43:44.170Z,101023.09
2023-01-22T12:46:21.851Z,101018.61
2023-01-22T12:48:55.248Z,101011.67
2023-01-22T12:51:37.577Z,101018.06
2023-01-22T12:54:25.041Z,101015.73
2023-01-22T12:57:00.870Z,101012.52
2023-01-22T12:59:43.491Z,101019.98
2023-01-22T13:02:28.467Z,101022.82
2023-01-22T13:05:11.456Z,101027.08
2023-01-22T13:07:45.143Z,101021.21
2023-01-22T13:10:30.166Z,101026.49
2023-01-22T13:13:05.221Z,101025.61
2023-01-22T13:15:40.014Z,101031.13
2023-01-22T13:18:20.690Z,101025.75
2023-01-22T13:20:57.667Z,101032.18
2023-01-22T13:23:32.402Z,101038.48
2023-01-22T13:26:06.842Z,101040.14
2023-01-22T13:28:42.227Z,101049.27
2023-01-22T13:31:19.351Z,101041.19
2023-01-22T13:34:05.687Z,101045.28
2023-01-22T13:36:42.417Z,101049.14
2023-01-22T13:39:21.372Z,101046.98
2023-01-22T13:41:56.003Z,101045.58
2023-01-22T13:44:31.929Z,101048.55
2023-01-22T13:47:06.418Z,101053.80
2023-01-22T13:49:44.441Z,101054.44
2023-01-22T13:52:20.465Z,101054.80
2023-01-22T13:54:56.836Z,101064.30
2023-01-22T13:57:30.178Z,101056.23
2023-01-22T14:00:04.937Z,101058.52
2023-01-22T14:02:38.974Z,101063.41
2023-01-22T14:05:21.799Z,101061.20
2023-01-22T14:08:06.911Z,101067.13
2023-01-22T14:10:42.533Z,101068.89
2023-01-22T14:13:19.285Z,101066.61
2023-01-22T14:15:59.510Z,101077.87
2023-01-22T14:18:32.632Z,101070.17
2023-01-22T14:21:06.899Z,101071.98
2023-01-22T14:23:41.986Z,101067.77
2023-01-22T14:26:15.136Z,101070.17
2023-01-22T14:28:48.307Z,101072.25
2023-01-22T14:31:21.973Z,101079.66
2023-01-22T14:33:55.366Z,101073.01
2023-01-22T14:36:28.710Z,101077.22
2023-01-22T14:39:01.860Z,101075.45
2023-01-22T14:41:35.189Z,101075.97
2023-01-22T14:44:08.670Z,101077.61
2023-01-22T14:46:42.963Z,101074.92
2023-01-22T14:49:16.139Z,101073.25
2023-01-22T14:51:49.246Z,101080.45
2023-01-22T14:54:22.592Z,101083.90
2023-01-22T14:56:56.589Z,101083.90
2023-01-22T14:59:29.631Z,101098.39
2023-01-22T15:02:02.854Z,101096.47
2023-01-22T15:04:36.412Z,101092.98
2023-01-22T15:07:28.441Z,101098.11
2023-01-22T15:10:01.418Z,101100.67
2023-01-22T15:12:35.420Z,101099.03
2023-01-22T15:15:10.935Z,101095.03
2023-01-22T15:17:44.193Z,101091.32
2023-01-22T15:20:20.723Z,101086.83
2023-01-22T15:22:54.073Z,101093.63
2023-01-22T15:25:27.785Z,101093.25
2023-01-22T15:28:01.245Z,101098.50
2023-01-22T15:30:34.608Z,101099.66
2023-01-22T15:33:07.870Z,101099.78
2023-01-22T15:35:41.389Z,101101.19
2023-01-22T15:38:14.658Z,101094.89
2023-01-22T15:40:48.208Z,101104.26
2023-01-22T15:43:21.727Z,101090.67
2023-01-22T15:45:57.755Z,101106.28
2023-01-22T15:48:31.232Z,101108.09
2023-01-22T15:51:13.131Z,101101.92
2023-01-22T15:53:50.977Z,101106.80
2023-01-22T15:56:24.195Z,101108.44
2023-01-22T15:58:58.396Z,101101.67
2023-01-22T16:01:31.987Z,101086.03
2023-01-22T16:04:05.776Z,101101.27
2023-01-22T16:06:39.296Z,101104.74
2023-01-22T16:09:12.640Z,101101.39
2023-01-22T16:11:46.100Z,101111.16
2023-01-22T16:14:20.153Z,101112.17
2023-01-22T16:16:53.739Z,101118.97
2023-01-22T16:19:28.295Z,101110.37
2023-01-22T16:22:01.595Z,101112.45
2023-01-22T16:24:35.045Z,101114.09
2023-01-22T16:27:08.099Z,101120.90
2023-01-22T16:29:41.782Z,101125.73
2023-01-22T16:32:15.376Z,101123.33
2023-01-22T16:34:48.986Z,101131.15
2023-01-22T16:37:22.498Z,101132.31
2023-01-22T16:39:56.142Z,101120.61
2023-01-22T16:42:29.720Z,101130.07
2023-01-22T16:45:03.320Z,101133.42
2023-01-22T16:47:36.681Z,101134.44
2023-01-22T16:50:12.394Z,101126.88
2023-01-22T16:52:48.115Z,101122.14
2023-01-22T16:55:21.643Z,101126.21
2023-01-22T16:57:55.164Z,101133.14
2023-01-22T17:00:28.434Z,101136.08
2023-01-22T17:03:01.922Z,101129.69
2023-01-22T17:05:35.569Z,101141.58
2023-01-22T17:08:09.412Z,101139.02
2023-01-22T17:10:42.634Z,101135.58
2023-01-22T17:13:16.167Z,101141.33
2023-01-22T17:15:52.030Z,101146.45
2023-01-22T17:18:26.279Z,101138.64
2023-01-22T17:21:06.681Z,101146.19
2023-01-22T17:23:39.753Z,101149.22
2023-01-22T17:26:15.482Z,101154.63
2023-01-22T17:28:49.375Z,101156.95
2023-01-22T17:31:24.751Z,101157.23
2023-01-22T17:33:59.216Z,101155.69
2023-01-22T17:36:46.390Z,101154.42
2023-01-22T17:39:21.283Z,101160.47
2023-01-22T17:41:54.754Z,101162.87
2023-01-22T17:44:47.808Z,101149.17
2023-01-22T17:47:21.280Z,101150.22
2023-01-22T17:50:02.473Z,101142.25
2023-01-22T17:52:36.869Z,101145.44
2023-01-22T17:55:12.201Z,101144.42
2023-01-22T17:57:45.468Z,101150.81
2023-01-22T18:00:21.383Z,101156.69
2023-01-22T18:02:54.994Z,101159.13
2023-01-22T18:05:29.335Z,101158.37
2023-01-22T18:08:02.953Z,101159.75
2023-01-22T18:10:37.874Z,101158.20
2023-01-22T18:13:11.269Z,101151.57
2023-01-22T18:15:48.974Z,101163.62
2023-01-22T18:18:20.857Z,101161.31
2023-01-22T18:20:55.892Z,101152.11
2023-01-22T18:23:28.783Z,101157.58
2023-01-22T18:26:05.536Z,101165.13
2023-01-22T18:28:39.673Z,101162.58
2023-01-22T18:31:16.202Z,101165.89
2023-01-22T18:33:49.654Z,101174.99
2023-01-22T18:36:25.466Z,101171.80
2023-01-22T18:39:01.292Z,101171.17
2023-01-22T18:41:35.026Z,101168.20
2023-01-22T18:44:10.057Z,101172.44
2023-01-22T18:46:45.629Z,101171.80
2023-01-22T18:49:20.308Z,101169.24
2023-01-22T18:51:55.281Z,101172.69
2023-01-22T18:54:31.726Z,101171.39
2023-01-22T18:57:05.434Z,101178.06
2023-01-22T18:59:38.720Z,101184.11
2023-01-22T19:02:14.985Z,101180.62
2023-01-22T19:04:48.510Z,101184.73
2023-01-22T19:07:21.887Z,101195.31
2023-01-22T19:09:56.255Z,101195.31
2023-01-22T19:12:29.714Z,101194.06
2023-01-22T19:15:03.271Z,101198.17
2023-01-22T19:17:36.821Z,101195.86
2023-01-22T19:20:15.115Z,101197.67
2023-01-22T19:22:48.776Z,101199.19
2023-01-22T19:25:22.423Z,101204.05
2023-01-22T19:27:56.373Z,101209.17
2023-01-22T19:30:29.935Z,101208.28
2023-01-22T19:33:03.358Z,101222.39
2023-01-22T19:35:36.930Z,101223.41
2023-01-22T19:38:10.680Z,101217.27
2023-01-22T19:40:47.285Z,101222.52
2023-01-22T19:43:20.800Z,101221.77
2023-01-22T19:45:54.156Z,101223.91
2023-01-22T19:48:28.004Z,101217.91
2023-01-22T19:51:02.322Z,101222.23
2023-01-22T19:53:48.956Z,101221.09
2023-01-22T19:56:24.614Z,101221.72
2023-01-22T19:59:00.473Z,101220.41
2023-01-22T20:01:34.148Z,101228.84
2023-01-22T20:04:38.233Z,101217.05
2023-01-22T20:07:13.091Z,101223.72
2023-01-22T20:09:46.622Z,101226.28
2023-01-22T20:12:20.006Z,101226.16
2023-01-22T20:14:53.380Z,101221.66
2023-01-22T20:17:26.882Z,101216.80
2023-01-22T20:20:00.488Z,101223.78
2023-01-22T20:22:34.480Z,101216.35
2023-01-22T20:25:11.313Z,101218.16
2023-01-22T20:27:45.166Z,101217.05
2023-01-22T20:30:20.284Z,101217.05
2023-01-22T20:32:56.434Z,101223.72
2023-01-22T20:35:29.132Z,101220.73
2023-01-22T20:38:02.756Z,101219.23
2023-01-22T20:40:36.399Z,101222.55
2023-01-22T20:43:09.873Z,101226.16
2023-01-22T20:45:43.360Z,101221.55
2023-01-22T20:48:17.251Z,101226.05
2023-01-22T20:50:50.841Z,101222.10
2023-01-22T20:53:24.253Z,101223.98
2023-01-22T20:56:05.804Z,101227.04
2023-01-22T20:58:39.565Z,101230.16
2023-01-22T21:01:16.001Z,101228.22
2023-01-22T21:03:50.593Z,101238.22
2023-01-22T21:06:24.716Z,101242.46
2023-01-22T21:08:58.945Z,101238.65
2023-01-22T21:11:33.833Z,101239.20
2023-01-22T21:14:08.268Z,101249.08
2023-01-22T21:16:44.498Z,101234.75
2023-01-22T21:19:23.745Z,101241.81
2023-01-22T21:21:57.532Z,101244.50
2023-01-22T21:24:31.222Z,101251.89
2023-01-22T21:27:04.379Z,101245.75
2023-01-22T21:29:38.067Z,101257.18
2023-01-22T21:32:11.772Z,101248.45
2023-01-22T21:34:45.135Z,101250.07
2023-01-22T21:37:18.942Z,101254.51
2023-01-22T21:39:52.895Z,101254.22
2023-01-22T21:42:43.536Z,101257.07
2023-01-22T21:45:34.385Z,101255.62
2023-01-22T21:48:09.906Z,101242.20
2023-01-22T21:50:43.899Z,101265.67
2023-01-22T21:53:17.365Z,101251.70
2023-01-22T21:55:55.049Z,101261.18
2023-01-22T21:58:27.159Z,101258.13
2023-01-22T22:01:06.913Z,101255.95
2023-01-22T22:03:40.604Z,101260.81
2023-01-22T22:06:15.374Z,101252.64
2023-01-22T22:08:48.940Z,101261.14
2023-01-22T22:11:22.197Z,101266.33
2023-01-22T22:13:56.706Z,101265.49
2023-01-22T22:16:30.321Z,101269.98
2023-01-22T22:19:03.820Z,101271.00
2023-01-22T22:21:37.902Z,101273.30
2023-01-22T22:24:12.484Z,101284.57
2023-01-22T22:26:45.874Z,101280.37
2023-01-22T22:29:19.739Z,101279.94
2023-01-22T22:31:53.329Z,101276.20
2023-01-22T22:34:26.806Z,101272.99
2023-01-22T22:37:00.327Z,101281.30
2023-01-22T22:39:33.784Z,101274.63
2023-01-22T22:42:07.356Z,101271.94
2023-01-22T22:44:40.882Z,101277.33
2023-01-22T22:47:14.194Z,101270.45
2023-01-22T22:49:47.905Z,101268.19
2023-01-22T22:52:21.943Z,101266.25
2023-01-22T22:54:55.348Z,101268.69
2023-01-22T22:57:28.675Z,101269.18
2023-01-22T23:00:03.727Z,101269.64
2023-01-22T23:02:37.207Z,101266.33
2023-01-22T23:05:12.012Z,101269.94
2023-01-22T23:07:45.695Z,101269.38
2023-01-22T23:10:30.212Z,101268.95
2023-01-22T23:13:04.643Z,101262.06
2023-01-22T23:15:38.247Z,101263.44
2023-01-22T23:18:12.068Z,101267.64
2023-01-22T23:20:45.837Z,101264.69
2023-01-22T23:23:19.491Z,101271.62
2023-01-22T23:25:52.704Z,101270.56
2023-01-22T23:28:26.280Z,101276.88
2023-01-22T23:31:01.199Z,101286.00
2023-01-22T23:33:35.071Z,101285.50
2023-01-22T23:36:11.708Z,101284.61
2023-01-22T23:38:45.743Z,101291.67
2023-01-22T23:41:20.945Z,101288.75
2023-01-22T23:43:54.397Z,101287.23
2023-01-22T23:46:30.997Z,101286.81
2023-01-22T23:49:05.872Z,101281.92
2023-01-22T23:51:41.400Z,101287.50
2023-01-22T23:54:15.191Z,101289.80
2023-01-22T23:56:48.819Z,101293.12
2023-01-22T23:59:23.681Z,101286.19
